sensor_id;sensor_type;location;lat;lon;timestamp;P1;durP1;ratioP1;P2;durP2;ratioP2
72974;SDS011;61166;54.228;37.632;2022-10-17T00:02:25;12.32;;;6.18;;
72974;SDS011;61166;54.228;37.632;2022-10-17T00:04:51;12.85;;;6.03;;
72974;SDS011;61166;54.228;37.632;2022-10-17T00:07:18;14.05;;;5.07;;
72974;SDS011;61166;54.228;37.632;2022-10-17T00:09:44;15.00;;;6.25;;
72974;SDS011;61166;54.228;37.632;2022-10-17T00:12:11;12.60;;;4.60;;
72974;SDS011;61166;54.228;37.632;2022-10-17T00:14:37;8.63;;;4.72;;
72974;SDS011;61166;54.228;37.632;2022-10-17T00:17:04;13.82;;;4.85;;
72974;SDS011;61166;54.228;37.632;2022-10-17T00:19:31;11.55;;;5.30;;
72974;SDS011;61166;54.228;37.632;2022-10-17T00:21:57;11.38;;;5.43;;
72974;SDS011;61166;54.228;37.632;2022-10-17T00:24:24;8.10;;;4.15;;
72974;SDS011;61166;54.228;37.632;2022-10-17T00:26:51;9.40;;;3.65;;
72974;SDS011;61166;54.228;37.632;2022-10-17T00:29:17;14.82;;;6.05;;
72974;SDS011;61166;54.228;37.632;2022-10-17T00:31:44;11.73;;;5.35;;
72974;SDS011;61166;54.228;37.632;2022-10-17T00:34:11;11.70;;;5.15;;
72974;SDS011;61166;54.228;37.632;2022-10-17T00:36:38;11.30;;;5.80;;
72974;SDS011;61166;54.228;37.632;2022-10-17T00:39:04;11.02;;;5.30;;
72974;SDS011;61166;54.228;37.632;2022-10-17T00:41:32;12.18;;;4.97;;
72974;SDS011;61166;54.228;37.632;2022-10-17T00:46:32;9.20;;;5.50;;
72974;SDS011;61166;54.228;37.632;2022-10-17T00:49:12;10.37;;;5.50;;
72974;SDS011;61166;54.228;37.632;2022-10-17T00:51:55;12.43;;;5.10;;
72974;SDS011;61166;54.228;37.632;2022-10-17T00:54:27;11.70;;;5.43;;
72974;SDS011;61166;54.228;37.632;2022-10-17T00:56:59;11.82;;;4.20;;
72974;SDS011;61166;54.228;37.632;2022-10-17T00:59:26;8.82;;;4.00;;
72974;SDS011;61166;54.228;37.632;2022-10-17T01:02:05;13.13;;;4.40;;
72974;SDS011;61166;54.228;37.632;2022-10-17T01:04:34;12.70;;;5.95;;
72974;SDS011;61166;54.228;37.632;2022-10-17T01:07:02;13.23;;;6.13;;
72974;SDS011;61166;54.228;37.632;2022-10-17T01:09:28;12.07;;;5.45;;
72974;SDS011;61166;54.228;37.632;2022-10-17T01:11:58;13.35;;;6.32;;
72974;SDS011;61166;54.228;37.632;2022-10-17T01:17:17;13.40;;;5.07;;
72974;SDS011;61166;54.228;37.632;2022-10-17T01:29:08;11.93;;;5.30;;
72974;SDS011;61166;54.228;37.632;2022-10-17T01:31:39;11.45;;;4.90;;
72974;SDS011;61166;54.228;37.632;2022-10-17T01:34:30;10.40;;;4.65;;
72974;SDS011;61166;54.228;37.632;2022-10-17T01:37:04;14.77;;;6.13;;
72974;SDS011;61166;54.228;37.632;2022-10-17T01:39:42;12.30;;;3.72;;
72974;SDS011;61166;54.228;37.632;2022-10-17T01:42:14;14.03;;;5.10;;
72974;SDS011;61166;54.228;37.632;2022-10-17T01:44:48;13.52;;;6.03;;
72974;SDS011;61166;54.228;37.632;2022-10-17T01:47:22;11.68;;;4.85;;
72974;SDS011;61166;54.228;37.632;2022-10-17T01:49:53;9.88;;;4.53;;
72974;SDS011;61166;54.228;37.632;2022-10-17T01:52:32;11.50;;;5.20;;
72974;SDS011;61166;54.228;37.632;2022-10-17T01:55:18;10.30;;;5.50;;
72974;SDS011;61166;54.228;37.632;2022-10-17T01:57:49;9.93;;;5.13;;
72974;SDS011;61166;54.228;37.632;2022-10-17T02:00:20;9.60;;;4.22;;
72974;SDS011;61166;54.228;37.632;2022-10-17T02:02:49;8.82;;;3.85;;
72974;SDS011;61166;54.228;37.632;2022-10-17T02:05:21;8.85;;;4.45;;
72974;SDS011;61166;54.228;37.632;2022-10-17T02:07:51;9.63;;;4.27;;
72974;SDS011;61166;54.228;37.632;2022-10-17T02:10:24;9.68;;;4.85;;
72974;SDS011;61166;54.228;37.632;2022-10-17T02:18:34;12.88;;;6.32;;
72974;SDS011;61166;54.228;37.632;2022-10-17T02:23:54;19.88;;;7.30;;
72974;SDS011;61166;54.228;37.632;2022-10-17T02:26:31;16.60;;;6.75;;
72974;SDS011;61166;54.228;37.632;2022-10-17T02:29:12;10.18;;;3.65;;
72974;SDS011;61166;54.228;37.632;2022-10-17T02:31:48;16.52;;;7.03;;
72974;SDS011;61166;54.228;37.632;2022-10-17T02:34:44;16.45;;;6.95;;
72974;SDS011;61166;54.228;37.632;2022-10-17T02:37:14;15.45;;;5.63;;
72974;SDS011;61166;54.228;37.632;2022-10-17T02:39:44;15.80;;;6.63;;
72974;SDS011;61166;54.228;37.632;2022-10-17T02:42:12;12.38;;;5.47;;
72974;SDS011;61166;54.228;37.632;2022-10-17T02:44:41;13.05;;;5.22;;
72974;SDS011;61166;54.228;37.632;2022-10-17T02:47:18;12.38;;;5.53;;
72974;SDS011;61166;54.228;37.632;2022-10-17T02:49:51;11.63;;;5.45;;
72974;SDS011;61166;54.228;37.632;2022-10-17T02:54:51;13.32;;;5.35;;
72974;SDS011;61166;54.228;37.632;2022-10-17T02:57:24;13.57;;;6.13;;
72974;SDS011;61166;54.228;37.632;2022-10-17T02:59:56;8.02;;;4.05;;
72974;SDS011;61166;54.228;37.632;2022-10-17T03:02:26;10.88;;;5.05;;
72974;SDS011;61166;54.228;37.632;2022-10-17T03:04:53;10.13;;;4.13;;
72974;SDS011;61166;54.228;37.632;2022-10-17T03:07:20;12.77;;;4.80;;
72974;SDS011;61166;54.228;37.632;2022-10-17T03:09:46;11.07;;;5.60;;
72974;SDS011;61166;54.228;37.632;2022-10-17T03:12:13;13.18;;;6.35;;
72974;SDS011;61166;54.228;37.632;2022-10-17T03:14:39;11.77;;;4.82;;
72974;SDS011;61166;54.228;37.632;2022-10-17T03:17:06;13.80;;;5.63;;
72974;SDS011;61166;54.228;37.632;2022-10-17T03:19:32;13.52;;;4.68;;
72974;SDS011;61166;54.228;37.632;2022-10-17T03:21:59;10.98;;;4.50;;
72974;SDS011;61166;54.228;37.632;2022-10-17T03:24:25;9.27;;;3.92;;
72974;SDS011;61166;54.228;37.632;2022-10-17T03:26:52;15.77;;;5.47;;
72974;SDS011;61166;54.228;37.632;2022-10-17T03:29:18;15.20;;;5.78;;
72974;SDS011;61166;54.228;37.632;2022-10-17T03:31:45;11.45;;;5.68;;
72974;SDS011;61166;54.228;37.632;2022-10-17T03:34:11;13.27;;;4.78;;
72974;SDS011;61166;54.228;37.632;2022-10-17T03:36:38;9.68;;;4.07;;
72974;SDS011;61166;54.228;37.632;2022-10-17T03:39:04;11.32;;;4.35;;
72974;SDS011;61166;54.228;37.632;2022-10-17T03:41:31;9.50;;;3.92;;
72974;SDS011;61166;54.228;37.632;2022-10-17T03:43:57;10.32;;;4.18;;
72974;SDS011;61166;54.228;37.632;2022-10-17T03:46:24;10.23;;;4.78;;
72974;SDS011;61166;54.228;37.632;2022-10-17T03:48:50;8.60;;;3.38;;
72974;SDS011;61166;54.228;37.632;2022-10-17T03:51:17;8.32;;;3.92;;
72974;SDS011;61166;54.228;37.632;2022-10-17T03:53:44;10.70;;;5.13;;
72974;SDS011;61166;54.228;37.632;2022-10-17T03:56:20;11.95;;;4.95;;
72974;SDS011;61166;54.228;37.632;2022-10-17T03:58:48;9.02;;;5.05;;
72974;SDS011;61166;54.228;37.632;2022-10-17T04:01:15;11.10;;;5.40;;
72974;SDS011;61166;54.228;37.632;2022-10-17T04:03:49;12.60;;;3.42;;
72974;SDS011;61166;54.228;37.632;2022-10-17T04:06:16;6.82;;;2.97;;
72974;SDS011;61166;54.228;37.632;2022-10-17T04:08:44;15.73;;;6.50;;
72974;SDS011;61166;54.228;37.632;2022-10-17T04:11:12;13.70;;;6.13;;
72974;SDS011;61166;54.228;37.632;2022-10-17T04:13:41;15.63;;;5.88;;
72974;SDS011;61166;54.228;37.632;2022-10-17T04:16:15;13.23;;;6.38;;
72974;SDS011;61166;54.228;37.632;2022-10-17T04:18:42;12.70;;;4.88;;
72974;SDS011;61166;54.228;37.632;2022-10-17T04:21:09;12.35;;;5.95;;
72974;SDS011;61166;54.228;37.632;2022-10-17T04:23:37;16.90;;;5.75;;
72974;SDS011;61166;54.228;37.632;2022-10-17T04:26:05;13.15;;;6.43;;
72974;SDS011;61166;54.228;37.632;2022-10-17T04:28:32;13.80;;;6.45;;
72974;SDS011;61166;54.228;37.632;2022-10-17T04:31:03;14.32;;;6.90;;
72974;SDS011;61166;54.228;37.632;2022-10-17T04:33:31;12.63;;;4.68;;
72974;SDS011;61166;54.228;37.632;2022-10-17T04:38:27;13.82;;;5.55;;
72974;SDS011;61166;54.228;37.632;2022-10-17T04:40:58;12.23;;;5.45;;
72974;SDS011;61166;54.228;37.632;2022-10-17T04:43:25;11.38;;;5.50;;
72974;SDS011;61166;54.228;37.632;2022-10-17T04:45:52;8.25;;;3.78;;
72974;SDS011;61166;54.228;37.632;2022-10-17T04:48:18;13.80;;;6.60;;
72974;SDS011;61166;54.228;37.632;2022-10-17T04:50:55;13.48;;;6.20;;
72974;SDS011;61166;54.228;37.632;2022-10-17T04:53:25;9.85;;;5.22;;
72974;SDS011;61166;54.228;37.632;2022-10-17T04:55:53;13.85;;;4.82;;
72974;SDS011;61166;54.228;37.632;2022-10-17T04:58:20;13.70;;;5.78;;
72974;SDS011;61166;54.228;37.632;2022-10-17T05:00:47;12.23;;;5.97;;
72974;SDS011;61166;54.228;37.632;2022-10-17T05:03:14;12.30;;;5.43;;
72974;SDS011;61166;54.228;37.632;2022-10-17T05:05:40;11.32;;;4.40;;
72974;SDS011;61166;54.228;37.632;2022-10-17T05:08:08;11.50;;;5.97;;
72974;SDS011;61166;54.228;37.632;2022-10-17T05:10:36;16.05;;;6.22;;
72974;SDS011;61166;54.228;37.632;2022-10-17T05:13:03;14.60;;;7.35;;
72974;SDS011;61166;54.228;37.632;2022-10-17T05:15:30;10.13;;;3.97;;
72974;SDS011;61166;54.228;37.632;2022-10-17T05:17:57;14.60;;;6.00;;
72974;SDS011;61166;54.228;37.632;2022-10-17T05:20:24;13.38;;;5.70;;
72974;SDS011;61166;54.228;37.632;2022-10-17T05:22:51;11.55;;;5.43;;
72974;SDS011;61166;54.228;37.632;2022-10-17T05:25:18;15.73;;;6.95;;
72974;SDS011;61166;54.228;37.632;2022-10-17T05:27:45;12.73;;;7.22;;
72974;SDS011;61166;54.228;37.632;2022-10-17T05:30:11;14.23;;;6.80;;
72974;SDS011;61166;54.228;37.632;2022-10-17T05:32:38;12.93;;;7.13;;
72974;SDS011;61166;54.228;37.632;2022-10-17T05:35:05;13.38;;;7.20;;
72974;SDS011;61166;54.228;37.632;2022-10-17T05:37:32;9.10;;;5.28;;
72974;SDS011;61166;54.228;37.632;2022-10-17T05:39:58;11.60;;;6.20;;
72974;SDS011;61166;54.228;37.632;2022-10-17T05:42:25;9.90;;;6.72;;
72974;SDS011;61166;54.228;37.632;2022-10-17T05:44:52;17.73;;;7.55;;
72974;SDS011;61166;54.228;37.632;2022-10-17T05:47:19;12.35;;;5.32;;
72974;SDS011;61166;54.228;37.632;2022-10-17T05:49:45;10.02;;;6.78;;
72974;SDS011;61166;54.228;37.632;2022-10-17T05:52:17;11.07;;;5.60;;
72974;SDS011;61166;54.228;37.632;2022-10-17T05:54:44;10.90;;;5.70;;
72974;SDS011;61166;54.228;37.632;2022-10-17T05:57:10;15.63;;;7.00;;
72974;SDS011;61166;54.228;37.632;2022-10-17T05:59:37;16.15;;;7.15;;
72974;SDS011;61166;54.228;37.632;2022-10-17T06:02:03;12.75;;;6.60;;
72974;SDS011;61166;54.228;37.632;2022-10-17T06:04:30;14.02;;;8.40;;
72974;SDS011;61166;54.228;37.632;2022-10-17T06:06:57;13.18;;;8.70;;
72974;SDS011;61166;54.228;37.632;2022-10-17T06:09:24;12.73;;;8.15;;
72974;SDS011;61166;54.228;37.632;2022-10-17T06:11:50;13.20;;;8.15;;
72974;SDS011;61166;54.228;37.632;2022-10-17T06:14:16;12.60;;;6.85;;
72974;SDS011;61166;54.228;37.632;2022-10-17T06:16:43;12.48;;;6.85;;
72974;SDS011;61166;54.228;37.632;2022-10-17T06:19:10;14.17;;;8.37;;
72974;SDS011;61166;54.228;37.632;2022-10-17T06:21:36;15.98;;;6.35;;
72974;SDS011;61166;54.228;37.632;2022-10-17T06:24:03;12.10;;;6.55;;
72974;SDS011;61166;54.228;37.632;2022-10-17T06:26:29;14.05;;;7.07;;
72974;SDS011;61166;54.228;37.632;2022-10-17T06:28:56;14.85;;;7.43;;
72974;SDS011;61166;54.228;37.632;2022-10-17T06:31:23;12.67;;;7.17;;
72974;SDS011;61166;54.228;37.632;2022-10-17T06:33:49;13.73;;;7.57;;
72974;SDS011;61166;54.228;37.632;2022-10-17T06:36:16;14.05;;;8.73;;
72974;SDS011;61166;54.228;37.632;2022-10-17T06:38:42;9.25;;;7.10;;
72974;SDS011;61166;54.228;37.632;2022-10-17T06:41:10;11.85;;;6.68;;
72974;SDS011;61166;54.228;37.632;2022-10-17T06:43:39;9.97;;;6.57;;
72974;SDS011;61166;54.228;37.632;2022-10-17T06:46:07;14.60;;;7.65;;
72974;SDS011;61166;54.228;37.632;2022-10-17T06:48:34;17.70;;;8.45;;
72974;SDS011;61166;54.228;37.632;2022-10-17T06:51:01;14.07;;;7.38;;
72974;SDS011;61166;54.228;37.632;2022-10-17T06:53:28;10.88;;;7.32;;
72974;SDS011;61166;54.228;37.632;2022-10-17T06:55:56;16.43;;;7.50;;
72974;SDS011;61166;54.228;37.632;2022-10-17T06:58:22;16.75;;;8.45;;
72974;SDS011;61166;54.228;37.632;2022-10-17T07:00:49;15.55;;;8.57;;
72974;SDS011;61166;54.228;37.632;2022-10-17T07:03:16;12.27;;;7.88;;
72974;SDS011;61166;54.228;37.632;2022-10-17T07:05:42;12.70;;;8.30;;
72974;SDS011;61166;54.228;37.632;2022-10-17T07:08:16;15.23;;;8.13;;
72974;SDS011;61166;54.228;37.632;2022-10-17T07:10:43;13.88;;;8.45;;
72974;SDS011;61166;54.228;37.632;2022-10-17T07:13:09;12.27;;;8.38;;
72974;SDS011;61166;54.228;37.632;2022-10-17T07:15:36;13.77;;;9.00;;
72974;SDS011;61166;54.228;37.632;2022-10-17T07:18:03;11.45;;;7.57;;
72974;SDS011;61166;54.228;37.632;2022-10-17T07:20:30;11.83;;;7.37;;
72974;SDS011;61166;54.228;37.632;2022-10-17T07:22:57;9.73;;;7.28;;
72974;SDS011;61166;54.228;37.632;2022-10-17T07:25:23;11.00;;;8.43;;
72974;SDS011;61166;54.228;37.632;2022-10-17T07:27:51;11.38;;;8.45;;
72974;SDS011;61166;54.228;37.632;2022-10-17T07:30:18;10.95;;;7.05;;
72974;SDS011;61166;54.228;37.632;2022-10-17T07:32:45;10.00;;;7.00;;
72974;SDS011;61166;54.228;37.632;2022-10-17T07:35:12;12.32;;;7.45;;
72974;SDS011;61166;54.228;37.632;2022-10-17T07:37:39;11.55;;;8.50;;
72974;SDS011;61166;54.228;37.632;2022-10-17T07:40:07;10.60;;;8.00;;
72974;SDS011;61166;54.228;37.632;2022-10-17T07:42:36;9.00;;;6.57;;
72974;SDS011;61166;54.228;37.632;2022-10-17T07:45:05;9.57;;;6.30;;
72974;SDS011;61166;54.228;37.632;2022-10-17T07:47:31;10.40;;;6.00;;
72974;SDS011;61166;54.228;37.632;2022-10-17T07:49:58;12.73;;;5.53;;
72974;SDS011;61166;54.228;37.632;2022-10-17T07:52:25;10.57;;;5.78;;
72974;SDS011;61166;54.228;37.632;2022-10-17T07:54:52;9.15;;;5.28;;
72974;SDS011;61166;54.228;37.632;2022-10-17T07:57:18;10.53;;;5.70;;
72974;SDS011;61166;54.228;37.632;2022-10-17T07:59:45;7.85;;;5.68;;
72974;SDS011;61166;54.228;37.632;2022-10-17T08:02:13;9.88;;;5.72;;
72974;SDS011;61166;54.228;37.632;2022-10-17T08:04:46;9.90;;;6.43;;
72974;SDS011;61166;54.228;37.632;2022-10-17T08:07:12;10.68;;;6.03;;
72974;SDS011;61166;54.228;37.632;2022-10-17T08:09:48;13.07;;;6.53;;
72974;SDS011;61166;54.228;37.632;2022-10-17T08:12:15;12.77;;;6.20;;
72974;SDS011;61166;54.228;37.632;2022-10-17T08:14:42;11.50;;;5.38;;
72974;SDS011;61166;54.228;37.632;2022-10-17T08:17:09;14.48;;;6.43;;
72974;SDS011;61166;54.228;37.632;2022-10-17T08:19:38;17.90;;;6.35;;
72974;SDS011;61166;54.228;37.632;2022-10-17T08:22:06;9.33;;;4.90;;
72974;SDS011;61166;54.228;37.632;2022-10-17T08:24:33;13.00;;;5.82;;
72974;SDS011;61166;54.228;37.632;2022-10-17T08:27:00;14.38;;;6.10;;
72974;SDS011;61166;54.228;37.632;2022-10-17T08:29:26;11.80;;;5.82;;
72974;SDS011;61166;54.228;37.632;2022-10-17T08:31:53;14.50;;;6.32;;
72974;SDS011;61166;54.228;37.632;2022-10-17T08:34:26;10.20;;;6.47;;
72974;SDS011;61166;54.228;37.632;2022-10-17T08:36:52;8.65;;;5.03;;
72974;SDS011;61166;54.228;37.632;2022-10-17T08:39:19;11.82;;;5.28;;
72974;SDS011;61166;54.228;37.632;2022-10-17T08:47:05;12.43;;;6.03;;
72974;SDS011;61166;54.228;37.632;2022-10-17T08:49:49;10.55;;;5.60;;
72974;SDS011;61166;54.228;37.632;2022-10-17T08:52:40;10.88;;;5.57;;
72974;SDS011;61166;54.228;37.632;2022-10-17T08:55:26;16.48;;;7.47;;
72974;SDS011;61166;54.228;37.632;2022-10-17T08:57:58;13.88;;;6.53;;
72974;SDS011;61166;54.228;37.632;2022-10-17T09:00:25;16.90;;;6.63;;
72974;SDS011;61166;54.228;37.632;2022-10-17T09:08:46;10.95;;;6.18;;
72974;SDS011;61166;54.228;37.632;2022-10-17T09:22:43;11.07;;;4.90;;
72974;SDS011;61166;54.228;37.632;2022-10-17T09:25:37;10.75;;;5.53;;
72974;SDS011;61166;54.228;37.632;2022-10-17T09:33:50;9.63;;;5.15;;
72974;SDS011;61166;54.228;37.632;2022-10-17T09:39:05;13.52;;;5.53;;
72974;SDS011;61166;54.228;37.632;2022-10-17T09:41:39;12.73;;;5.70;;
72974;SDS011;61166;54.228;37.632;2022-10-17T09:46:48;11.32;;;5.30;;
72974;SDS011;61166;54.228;37.632;2022-10-17T09:49:25;11.20;;;5.95;;
72974;SDS011;61166;54.228;37.632;2022-10-17T09:52:04;13.57;;;6.05;;
72974;SDS011;61166;54.228;37.632;2022-10-17T09:54:41;14.27;;;6.60;;
72974;SDS011;61166;54.228;37.632;2022-10-17T09:57:17;12.02;;;6.53;;
72974;SDS011;61166;54.228;37.632;2022-10-17T10:02:50;12.25;;;6.45;;
72974;SDS011;61166;54.228;37.632;2022-10-17T10:05:36;15.90;;;5.78;;
72974;SDS011;61166;54.228;37.632;2022-10-17T10:08:13;15.48;;;7.65;;
72974;SDS011;61166;54.228;37.632;2022-10-17T10:10:41;13.60;;;6.47;;
72974;SDS011;61166;54.228;37.632;2022-10-17T10:15:48;14.02;;;6.78;;
72974;SDS011;61166;54.228;37.632;2022-10-17T10:18:33;14.23;;;8.13;;
72974;SDS011;61166;54.228;37.632;2022-10-17T10:21:02;18.58;;;10.23;;
72974;SDS011;61166;54.228;37.632;2022-10-17T10:23:38;19.05;;;9.05;;
72974;SDS011;61166;54.228;37.632;2022-10-17T10:29:17;21.40;;;12.13;;
72974;SDS011;61166;54.228;37.632;2022-10-17T10:34:52;18.05;;;9.07;;
72974;SDS011;61166;54.228;37.632;2022-10-17T10:37:29;16.38;;;9.68;;
72974;SDS011;61166;54.228;37.632;2022-10-17T10:40:04;18.65;;;8.82;;
72974;SDS011;61166;54.228;37.632;2022-10-17T10:42:33;17.88;;;9.45;;
72974;SDS011;61166;54.228;37.632;2022-10-17T10:54:07;12.73;;;7.28;;
72974;SDS011;61166;54.228;37.632;2022-10-17T11:04:30;14.18;;;7.63;;
72974;SDS011;61166;54.228;37.632;2022-10-17T11:07:06;21.75;;;9.27;;
72974;SDS011;61166;54.228;37.632;2022-10-17T11:09:57;15.32;;;7.90;;
72974;SDS011;61166;54.228;37.632;2022-10-17T11:17:59;21.77;;;9.02;;
72974;SDS011;61166;54.228;37.632;2022-10-17T11:20:37;13.45;;;6.82;;
72974;SDS011;61166;54.228;37.632;2022-10-17T11:23:40;19.08;;;8.15;;
72974;SDS011;61166;54.228;37.632;2022-10-17T11:26:07;14.20;;;8.73;;
72974;SDS011;61166;54.228;37.632;2022-10-17T11:28:38;16.70;;;9.35;;
72974;SDS011;61166;54.228;37.632;2022-10-17T11:31:09;17.05;;;7.93;;
72974;SDS011;61166;54.228;37.632;2022-10-17T11:36:13;14.30;;;8.15;;
72974;SDS011;61166;54.228;37.632;2022-10-17T11:41:33;14.75;;;8.48;;
72974;SDS011;61166;54.228;37.632;2022-10-17T11:44:53;15.23;;;7.47;;
72974;SDS011;61166;54.228;37.632;2022-10-17T11:49:49;15.68;;;6.55;;
72974;SDS011;61166;54.228;37.632;2022-10-17T11:52:43;13.27;;;7.90;;
72974;SDS011;61166;54.228;37.632;2022-10-17T11:55:25;14.23;;;7.53;;
72974;SDS011;61166;54.228;37.632;2022-10-17T12:06:44;15.38;;;8.32;;
72974;SDS011;61166;54.228;37.632;2022-10-17T12:12:00;16.02;;;7.55;;
72974;SDS011;61166;54.228;37.632;2022-10-17T12:17:04;15.25;;;7.72;;
72974;SDS011;61166;54.228;37.632;2022-10-17T12:19:48;12.85;;;7.55;;
72974;SDS011;61166;54.228;37.632;2022-10-17T12:22:18;12.27;;;7.18;;
72974;SDS011;61166;54.228;37.632;2022-10-17T12:25:00;15.45;;;9.10;;
72974;SDS011;61166;54.228;37.632;2022-10-17T12:27:41;19.17;;;7.88;;
72974;SDS011;61166;54.228;37.632;2022-10-17T12:32:55;11.70;;;6.82;;
72974;SDS011;61166;54.228;37.632;2022-10-17T12:35:41;11.98;;;6.40;;
72974;SDS011;61166;54.228;37.632;2022-10-17T12:45:47;12.90;;;6.30;;
72974;SDS011;61166;54.228;37.632;2022-10-17T12:51:17;11.90;;;6.03;;
72974;SDS011;61166;54.228;37.632;2022-10-17T12:56:46;11.30;;;6.72;;
72974;SDS011;61166;54.228;37.632;2022-10-17T13:01:44;12.00;;;6.85;;
72974;SDS011;61166;54.228;37.632;2022-10-17T13:04:14;13.15;;;6.55;;
72974;SDS011;61166;54.228;37.632;2022-10-17T13:06:45;11.60;;;6.05;;
72974;SDS011;61166;54.228;37.632;2022-10-17T13:09:19;13.90;;;6.43;;
72974;SDS011;61166;54.228;37.632;2022-10-17T13:11:50;9.65;;;5.28;;
72974;SDS011;61166;54.228;37.632;2022-10-17T13:14:18;11.02;;;6.45;;
72974;SDS011;61166;54.228;37.632;2022-10-17T13:19:40;12.32;;;6.43;;
72974;SDS011;61166;54.228;37.632;2022-10-17T13:22:15;11.10;;;6.30;;
72974;SDS011;61166;54.228;37.632;2022-10-17T13:24:44;14.40;;;6.82;;
72974;SDS011;61166;54.228;37.632;2022-10-17T13:27:30;14.95;;;7.70;;
72974;SDS011;61166;54.228;37.632;2022-10-17T13:30:00;9.65;;;5.30;;
72974;SDS011;61166;54.228;37.632;2022-10-17T13:32:35;12.07;;;5.90;;
72974;SDS011;61166;54.228;37.632;2022-10-17T13:35:05;11.27;;;6.78;;
72974;SDS011;61166;54.228;37.632;2022-10-17T13:37:36;12.57;;;6.60;;
72974;SDS011;61166;54.228;37.632;2022-10-17T13:40:05;11.85;;;5.88;;
72974;SDS011;61166;54.228;37.632;2022-10-17T13:42:53;12.43;;;6.03;;
72974;SDS011;61166;54.228;37.632;2022-10-17T13:45:32;12.52;;;6.38;;
72974;SDS011;61166;54.228;37.632;2022-10-17T13:48:02;10.35;;;6.10;;
72974;SDS011;61166;54.228;37.632;2022-10-17T13:50:32;15.18;;;6.93;;
72974;SDS011;61166;54.228;37.632;2022-10-17T13:53:24;12.32;;;7.50;;
72974;SDS011;61166;54.228;37.632;2022-10-17T13:56:06;14.23;;;6.93;;
72974;SDS011;61166;54.228;37.632;2022-10-17T13:58:55;12.45;;;5.70;;
72974;SDS011;61166;54.228;37.632;2022-10-17T14:01:25;13.10;;;6.65;;
72974;SDS011;61166;54.228;37.632;2022-10-17T14:03:53;11.75;;;5.40;;
72974;SDS011;61166;54.228;37.632;2022-10-17T14:06:34;11.98;;;6.07;;
72974;SDS011;61166;54.228;37.632;2022-10-17T14:09:30;11.82;;;6.00;;
72974;SDS011;61166;54.228;37.632;2022-10-17T14:12:00;12.77;;;6.55;;
72974;SDS011;61166;54.228;37.632;2022-10-17T14:14:31;14.85;;;6.43;;
72974;SDS011;61166;54.228;37.632;2022-10-17T14:17:21;12.10;;;6.65;;
72974;SDS011;61166;54.228;37.632;2022-10-17T14:19:52;14.45;;;6.55;;
72974;SDS011;61166;54.228;37.632;2022-10-17T14:22:40;12.18;;;6.75;;
72974;SDS011;61166;54.228;37.632;2022-10-17T14:25:32;13.85;;;5.93;;
72974;SDS011;61166;54.228;37.632;2022-10-17T14:28:01;8.93;;;5.88;;
72974;SDS011;61166;54.228;37.632;2022-10-17T14:33:27;10.73;;;5.38;;
72974;SDS011;61166;54.228;37.632;2022-10-17T14:35:56;11.02;;;6.28;;
72974;SDS011;61166;54.228;37.632;2022-10-17T14:38:25;11.95;;;6.05;;
72974;SDS011;61166;54.228;37.632;2022-10-17T14:41:04;15.55;;;6.35;;
72974;SDS011;61166;54.228;37.632;2022-10-17T14:43:59;12.85;;;6.18;;
72974;SDS011;61166;54.228;37.632;2022-10-17T14:46:42;13.85;;;6.30;;
72974;SDS011;61166;54.228;37.632;2022-10-17T14:49:16;11.25;;;5.97;;
72974;SDS011;61166;54.228;37.632;2022-10-17T14:54:43;11.43;;;6.35;;
72974;SDS011;61166;54.228;37.632;2022-10-17T14:57:16;12.35;;;6.35;;
72974;SDS011;61166;54.228;37.632;2022-10-17T14:59:44;13.07;;;6.03;;
72974;SDS011;61166;54.228;37.632;2022-10-17T15:02:20;15.80;;;7.05;;
72974;SDS011;61166;54.228;37.632;2022-10-17T15:04:47;10.75;;;6.18;;
72974;SDS011;61166;54.228;37.632;2022-10-17T15:07:14;12.15;;;6.47;;
72974;SDS011;61166;54.228;37.632;2022-10-17T15:09:42;13.38;;;6.60;;
72974;SDS011;61166;54.228;37.632;2022-10-17T15:12:13;11.32;;;5.85;;
72974;SDS011;61166;54.228;37.632;2022-10-17T15:14:47;13.65;;;6.18;;
72974;SDS011;61166;54.228;37.632;2022-10-17T15:17:15;11.82;;;6.47;;
72974;SDS011;61166;54.228;37.632;2022-10-17T15:19:45;12.60;;;6.72;;
72974;SDS011;61166;54.228;37.632;2022-10-17T15:22:13;10.82;;;6.63;;
72974;SDS011;61166;54.228;37.632;2022-10-17T15:24:39;11.77;;;6.20;;
72974;SDS011;61166;54.228;37.632;2022-10-17T15:27:09;14.88;;;6.72;;
72974;SDS011;61166;54.228;37.632;2022-10-17T15:29:41;13.00;;;6.63;;
72974;SDS011;61166;54.228;37.632;2022-10-17T15:32:07;14.18;;;5.88;;
72974;SDS011;61166;54.228;37.632;2022-10-17T15:34:35;12.32;;;6.32;;
72974;SDS011;61166;54.228;37.632;2022-10-17T15:37:01;13.48;;;6.30;;
72974;SDS011;61166;54.228;37.632;2022-10-17T15:39:29;13.38;;;7.43;;
72974;SDS011;61166;54.228;37.632;2022-10-17T15:41:56;13.50;;;6.97;;
72974;SDS011;61166;54.228;37.632;2022-10-17T15:44:22;11.75;;;5.60;;
72974;SDS011;61166;54.228;37.632;2022-10-17T15:46:49;14.20;;;7.05;;
72974;SDS011;61166;54.228;37.632;2022-10-17T15:49:16;11.57;;;5.82;;
72974;SDS011;61166;54.228;37.632;2022-10-17T15:51:43;10.30;;;6.00;;
72974;SDS011;61166;54.228;37.632;2022-10-17T15:54:10;10.38;;;5.40;;
72974;SDS011;61166;54.228;37.632;2022-10-17T15:56:39;13.38;;;6.97;;
72974;SDS011;61166;54.228;37.632;2022-10-17T15:59:11;11.65;;;6.38;;
72974;SDS011;61166;54.228;37.632;2022-10-17T16:01:43;10.88;;;6.60;;
72974;SDS011;61166;54.228;37.632;2022-10-17T16:04:10;11.35;;;6.28;;
72974;SDS011;61166;54.228;37.632;2022-10-17T16:06:37;12.65;;;6.10;;
72974;SDS011;61166;54.228;37.632;2022-10-17T16:09:04;12.48;;;6.63;;
72974;SDS011;61166;54.228;37.632;2022-10-17T16:14:12;8.45;;;4.07;;
72974;SDS011;61166;54.228;37.632;2022-10-17T16:16:41;12.48;;;6.57;;
72974;SDS011;61166;54.228;37.632;2022-10-17T16:19:07;12.57;;;6.30;;
72974;SDS011;61166;54.228;37.632;2022-10-17T16:21:35;8.43;;;5.35;;
72974;SDS011;61166;54.228;37.632;2022-10-17T16:24:04;7.97;;;4.72;;
72974;SDS011;61166;54.228;37.632;2022-10-17T16:26:31;12.35;;;6.57;;
72974;SDS011;61166;54.228;37.632;2022-10-17T16:28:58;11.00;;;6.43;;
72974;SDS011;61166;54.228;37.632;2022-10-17T16:31:29;15.43;;;6.00;;
72974;SDS011;61166;54.228;37.632;2022-10-17T16:33:58;13.23;;;5.68;;
72974;SDS011;61166;54.228;37.632;2022-10-17T16:36:25;10.77;;;6.03;;
72974;SDS011;61166;54.228;37.632;2022-10-17T16:38:52;10.20;;;5.70;;
72974;SDS011;61166;54.228;37.632;2022-10-17T16:41:20;12.05;;;5.95;;
72974;SDS011;61166;54.228;37.632;2022-10-17T16:43:48;10.90;;;6.03;;
72974;SDS011;61166;54.228;37.632;2022-10-17T16:46:16;10.50;;;6.30;;
72974;SDS011;61166;54.228;37.632;2022-10-17T16:48:44;13.45;;;6.85;;
72974;SDS011;61166;54.228;37.632;2022-10-17T16:51:11;11.27;;;6.40;;
72974;SDS011;61166;54.228;37.632;2022-10-17T16:53:39;13.50;;;6.45;;
72974;SDS011;61166;54.228;37.632;2022-10-17T16:56:06;12.45;;;7.35;;
72974;SDS011;61166;54.228;37.632;2022-10-17T16:58:33;14.75;;;6.60;;
72974;SDS011;61166;54.228;37.632;2022-10-17T17:01:00;15.57;;;6.53;;
72974;SDS011;61166;54.228;37.632;2022-10-17T17:03:28;14.10;;;7.75;;
72974;SDS011;61166;54.228;37.632;2022-10-17T17:05:55;15.20;;;6.25;;
72974;SDS011;61166;54.228;37.632;2022-10-17T17:08:21;15.15;;;7.35;;
72974;SDS011;61166;54.228;37.632;2022-10-17T17:10:48;16.83;;;7.30;;
72974;SDS011;61166;54.228;37.632;2022-10-17T17:13:14;11.45;;;6.47;;